This is the latest recevied weather packets stored in our database for station/object OE7SBH-WX. If no packets are shown the sender has not sent any weather packets the latest 10 day(s).
| Time | Temp. | Humidity | Pressure | Rain* | Wind** | Luminosity | Snow |
|---|---|---|---|---|---|---|---|
| 1777557328 | 17.78° C | 37% | 1026.9 hPa | 0 mm | - | 490 W/m² | - |
| 1777555534 | 17.78° C | 38% | 1027.1 hPa | 0 mm | - | 545 W/m² | - |
| 1777549528 | 16.11° C | 41% | 1027.8 hPa | 0 mm | - | 656 W/m² | - |
| 1777544123 | 14.44° C | 47% | 1029.1 hPa | 0 mm | - | 642 W/m² | - |
| 1777543554 | 13.89° C | 48% | 1029.2 hPa | 0 mm | - | 633 W/m² | - |
| 1777539954 | 12.78° C | 53% | 1030.2 hPa | 0 mm | - | 549 W/m² | - |
| 1777535134 | 8.33° C | 62% | 1030.8 hPa | 0 mm | - | 386 W/m² | - |
| 1777533324 | 6.67° C | 71% | 1031.2 hPa | 0 mm | - | 313 W/m² | - |
| 1777531534 | 6.11° C | 74% | 1031.2 hPa | 0 mm | - | 239 W/m² | - |
| 1777529134 | 4.44° C | 79% | 1031.3 hPa | 0 mm | - | 145 W/m² | - |
| 1777527928 | 4.44° C | 79% | 1031.3 hPa | 0 mm | - | 105 W/m² | - |
| 1777520129 | 3.33° C | 85% | 1030.3 hPa | 0 mm | - | 0 W/m² | - |
| 1777515329 | 3.89° C | 84% | 1030 hPa | 0 mm | - | 0 W/m² | - |
| 1777508751 | 5.56° C | 75% | 1029.4 hPa | 0 mm | - | 0 W/m² | - |
| 1777506929 | 6.11° C | 74% | 1029.2 hPa | 0 mm | - | 0 W/m² | - |
| 1777505729 | 7.78° C | 67% | 1029 hPa | 0 mm | - | 0 W/m² | - |
| 1777503930 | 7.78° C | 67% | 1028.8 hPa | 0 mm | - | 0 W/m² | - |
| 1777502733 | 7.78° C | 70% | 1028.7 hPa | 0 mm | - | 0 W/m² | - |
| 1777500348 | 9.44° C | 60% | 1028.3 hPa | 0 mm | - | 0 W/m² | - |
| 1777497925 | 10.56° C | 54% | 1028.1 hPa | 0 mm | - | 0 W/m² | - |
| 1777496751 | 11.11° C | 51% | 1028 hPa | 0 mm | - | 0 W/m² | - |
| 1777493128 | 12.22° C | 50% | 1027.4 hPa | 0 mm | - | 0 W/m² | - |
| 1777492535 | 12.78° C | 48% | 1027.3 hPa | 0 mm | - | 0 W/m² | - |
| 1777489528 | 13.33° C | 47% | 1026.6 hPa | 0 mm | - | 0 W/m² | - |
| 1777488927 | 13.89° C | 47% | 1026.4 hPa | 0 mm | - | 0 W/m² | - |
* Rain latest hour (hover to see other rain measurements)
** Current wind speed in m/s (hover to see current wind gust speed)